createdAt,value
2022-10-22T00:00:56.154Z,23.92
2022-10-22T00:03:58.222Z,26.02
2022-10-22T00:07:00.183Z,23.45
2022-10-22T00:10:02.390Z,21.75
2022-10-22T00:13:05.189Z,21.50
2022-10-22T00:16:07.589Z,19.65
2022-10-22T00:19:09.654Z,19.37
2022-10-22T00:22:11.935Z,19.02
2022-10-22T00:25:14.076Z,15.95
2022-10-22T00:28:16.144Z,17.43
2022-10-22T00:31:20.171Z,16.90
2022-10-22T00:34:22.993Z,13.80
2022-10-22T00:37:25.066Z,13.18
2022-10-22T00:40:27.098Z,11.65
2022-10-22T00:43:29.101Z,11.10
2022-10-22T00:46:31.246Z,12.55
2022-10-22T00:49:33.317Z,13.45
2022-10-22T00:52:36.058Z,11.18
2022-10-22T00:55:40.015Z,10.63
2022-10-22T00:58:47.312Z,10.43
2022-10-22T01:01:50.440Z,11.43
2022-10-22T01:04:52.392Z,11.75
2022-10-22T01:07:54.655Z,11.45
2022-10-22T01:11:33.953Z,10.43
2022-10-22T01:14:57.453Z,10.20
2022-10-22T01:18:32.712Z,12.85
2022-10-22T01:21:40.195Z,10.95
2022-10-22T01:25:08.154Z,10.35
2022-10-22T01:28:23.540Z,12.32
2022-10-22T01:31:31.473Z,15.30
2022-10-22T01:34:33.807Z,11.98
2022-10-22T01:37:41.825Z,11.45
2022-10-22T01:40:45.712Z,14.82
2022-10-22T01:43:47.853Z,9.90
2022-10-22T01:46:55.453Z,9.20
2022-10-22T01:50:25.733Z,8.88
2022-10-22T01:53:40.348Z,8.52
2022-10-22T01:56:45.346Z,8.50
2022-10-22T02:00:00.773Z,8.55
2022-10-22T02:03:09.866Z,10.27
2022-10-22T02:06:18.969Z,9.73
2022-10-22T02:09:23.195Z,10.02
2022-10-22T02:12:28.917Z,9.35
2022-10-22T02:15:33.334Z,9.55
2022-10-22T02:18:40.345Z,9.47
2022-10-22T02:21:42.589Z,8.48
2022-10-22T02:24:45.020Z,8.80
2022-10-22T02:27:52.520Z,9.20
2022-10-22T02:30:59.019Z,8.40
2022-10-22T02:34:08.917Z,9.30
2022-10-22T02:37:11.320Z,9.00
2022-10-22T02:40:13.604Z,8.38
2022-10-22T02:43:15.592Z,9.25
2022-10-22T02:46:17.665Z,9.90
2022-10-22T02:49:19.709Z,10.00
2022-10-22T02:52:21.755Z,9.45
2022-10-22T02:55:23.760Z,10.02
2022-10-22T02:58:25.924Z,9.23
2022-10-22T03:01:27.979Z,9.82
2022-10-22T03:04:30.185Z,11.50
2022-10-22T03:07:32.158Z,10.65
2022-10-22T03:10:34.160Z,11.88
2022-10-22T03:13:36.061Z,8.35
2022-10-22T03:16:38.053Z,10.10
2022-10-22T03:19:40.001Z,9.47
2022-10-22T03:22:43.826Z,8.68
2022-10-22T03:25:48.612Z,9.27
2022-10-22T03:28:51.300Z,8.85
2022-10-22T03:31:54.924Z,8.70
2022-10-22T03:34:56.930Z,10.97
2022-10-22T03:38:01.557Z,7.80
2022-10-22T03:41:03.992Z,8.90
2022-10-22T03:44:06.287Z,8.52
2022-10-22T03:47:08.539Z,10.35
2022-10-22T03:50:11.077Z,8.37
2022-10-22T03:53:13.113Z,9.82
2022-10-22T03:56:15.123Z,10.60
2022-10-22T03:59:17.497Z,13.48
2022-10-22T04:02:19.655Z,9.13
2022-10-22T04:05:21.590Z,12.97
2022-10-22T04:08:23.669Z,9.00
2022-10-22T04:11:25.725Z,11.00
2022-10-22T04:14:27.821Z,8.90
2022-10-22T04:17:36.676Z,9.43
2022-10-22T04:20:38.688Z,7.93
2022-10-22T04:23:47.421Z,8.27
2022-10-22T04:26:49.415Z,9.43
2022-10-22T04:29:52.382Z,8.23
2022-10-22T04:32:54.371Z,10.90
2022-10-22T04:35:56.359Z,7.80
2022-10-22T04:39:00.747Z,10.23
2022-10-22T04:42:02.934Z,8.35
2022-10-22T04:45:05.103Z,11.45
2022-10-22T04:48:07.288Z,8.40
2022-10-22T04:51:12.197Z,10.07
2022-10-22T04:54:15.060Z,11.68
2022-10-22T04:57:17.255Z,13.40
2022-10-22T05:00:19.289Z,12.82
2022-10-22T05:03:21.246Z,10.80
2022-10-22T05:06:24.517Z,13.40
2022-10-22T05:09:26.432Z,10.98
2022-10-22T05:12:29.766Z,9.43
2022-10-22T05:15:33.648Z,11.05
2022-10-22T05:18:40.512Z,10.00
2022-10-22T05:21:42.486Z,13.90
2022-10-22T05:24:44.578Z,8.82
2022-10-22T05:27:50.027Z,9.43
2022-10-22T05:30:59.408Z,10.18
2022-10-22T05:34:01.636Z,10.10
2022-10-22T05:37:03.900Z,11.33
2022-10-22T05:40:19.505Z,12.05
2022-10-22T05:43:29.303Z,14.48
2022-10-22T05:46:34.881Z,11.43
2022-10-22T05:49:37.925Z,12.35
2022-10-22T05:52:40.089Z,9.90
2022-10-22T05:55:42.294Z,8.93
2022-10-22T05:58:45.238Z,11.23
2022-10-22T06:01:47.305Z,10.57
2022-10-22T06:04:49.269Z,12.18
2022-10-22T06:07:51.289Z,10.87
2022-10-22T06:10:53.364Z,10.07
2022-10-22T06:13:55.380Z,9.55
2022-10-22T06:17:00.495Z,8.60
2022-10-22T06:20:02.770Z,10.88
2022-10-22T06:23:04.841Z,9.70
2022-10-22T06:26:07.926Z,9.77
2022-10-22T06:29:10.826Z,10.55
2022-10-22T06:32:12.794Z,11.93
2022-10-22T06:35:14.905Z,11.45
2022-10-22T06:38:16.939Z,11.77
2022-10-22T06:41:19.437Z,8.82
2022-10-22T06:44:21.854Z,8.80
2022-10-22T06:47:23.960Z,10.45
2022-10-22T06:50:26.054Z,7.93
2022-10-22T06:53:28.067Z,10.03
2022-10-22T06:56:30.195Z,11.65
2022-10-22T06:59:32.654Z,8.82
2022-10-22T07:02:34.717Z,8.43
2022-10-22T07:05:36.918Z,8.48
2022-10-22T07:08:40.419Z,8.37
2022-10-22T07:11:45.433Z,8.50
2022-10-22T07:14:48.727Z,9.43
2022-10-22T07:17:52.163Z,9.43
2022-10-22T07:20:54.735Z,9.20
2022-10-22T07:23:57.866Z,8.17
2022-10-22T07:26:59.890Z,9.45
2022-10-22T07:30:02.574Z,9.98
2022-10-22T07:33:05.364Z,8.88
2022-10-22T07:36:10.995Z,9.18
2022-10-22T07:39:13.414Z,10.43
2022-10-22T07:42:15.580Z,9.73
2022-10-22T07:45:17.692Z,8.00
2022-10-22T07:48:20.319Z,8.40
2022-10-22T07:51:23.145Z,9.68
2022-10-22T07:54:25.249Z,9.63
2022-10-22T07:57:27.534Z,8.68
2022-10-22T08:00:29.723Z,10.10
2022-10-22T08:03:32.357Z,10.43
2022-10-22T08:06:35.009Z,11.80
2022-10-22T08:09:37.145Z,11.63
2022-10-22T08:12:40.169Z,8.73
2022-10-22T08:18:51.393Z,9.85
2022-10-22T08:21:53.272Z,8.30
2022-10-22T08:24:55.289Z,9.10
2022-10-22T08:27:57.353Z,8.98
2022-10-22T08:30:59.813Z,8.85
2022-10-22T08:34:01.832Z,10.43
2022-10-22T08:37:03.848Z,8.93
2022-10-22T08:40:21.900Z,10.33
2022-10-22T08:43:48.768Z,9.35
2022-10-22T08:47:46.509Z,10.30
2022-10-22T08:50:51.736Z,11.68
2022-10-22T08:54:06.076Z,11.00
2022-10-22T09:00:47.792Z,12.27
2022-10-22T09:03:59.316Z,10.20
2022-10-22T09:07:01.286Z,9.90
2022-10-22T09:10:03.931Z,10.38
2022-10-22T09:13:05.908Z,11.77
2022-10-22T09:16:35.664Z,11.35
2022-10-22T09:20:07.303Z,10.95
2022-10-22T09:23:27.798Z,10.98
2022-10-22T09:26:34.132Z,10.48
2022-10-22T09:29:37.188Z,12.30
2022-10-22T09:32:39.953Z,9.45
2022-10-22T09:36:11.516Z,10.27
2022-10-22T09:39:34.173Z,10.15
2022-10-22T09:42:36.095Z,10.45
2022-10-22T09:45:38.030Z,12.57
2022-10-22T09:48:43.102Z,11.32
2022-10-22T09:51:59.869Z,10.18
2022-10-22T09:55:07.149Z,16.08
2022-10-22T09:58:12.833Z,10.40
2022-10-22T10:01:25.076Z,12.63
2022-10-22T10:04:27.308Z,11.70
2022-10-22T10:07:34.086Z,9.88
2022-10-22T10:10:45.591Z,11.77
2022-10-22T10:13:52.828Z,11.60
2022-10-22T10:17:12.494Z,11.10
2022-10-22T10:20:41.115Z,10.50
2022-10-22T10:23:54.542Z,12.30
2022-10-22T10:27:20.319Z,12.23
2022-10-22T10:30:24.184Z,10.25
2022-10-22T10:33:46.295Z,9.67
2022-10-22T10:37:14.610Z,12.95
2022-10-22T10:40:28.610Z,11.52
2022-10-22T10:43:45.831Z,11.95
2022-10-22T10:47:04.261Z,11.70
2022-10-22T10:50:44.642Z,9.83
2022-10-22T10:53:52.327Z,15.63
2022-10-22T10:57:03.282Z,12.02
2022-10-22T11:00:22.115Z,9.48
2022-10-22T11:03:59.026Z,13.40
2022-10-22T11:07:16.749Z,13.67
2022-10-22T11:10:42.081Z,12.15
2022-10-22T11:13:59.252Z,12.30
2022-10-22T11:17:17.157Z,12.60
2022-10-22T11:20:26.479Z,10.48
2022-10-22T11:23:55.998Z,12.17
2022-10-22T11:27:18.546Z,11.20
2022-10-22T11:30:23.894Z,10.98
2022-10-22T11:33:31.542Z,14.82
2022-10-22T11:36:34.482Z,13.07
2022-10-22T11:39:53.806Z,12.10
2022-10-22T11:43:04.912Z,9.82
2022-10-22T11:46:15.654Z,13.77
2022-10-22T11:49:22.666Z,13.02
2022-10-22T11:52:32.671Z,13.82
2022-10-22T11:55:48.117Z,12.57
2022-10-22T11:58:53.937Z,12.13
2022-10-22T12:01:56.832Z,11.23
2022-10-22T12:05:17.941Z,13.52
2022-10-22T12:08:24.241Z,11.65
2022-10-22T12:11:45.281Z,10.87
2022-10-22T12:14:56.778Z,11.95
2022-10-22T12:18:05.992Z,12.20
2022-10-22T12:21:14.102Z,13.60
2022-10-22T12:24:19.319Z,12.70
2022-10-22T12:27:39.159Z,11.17
2022-10-22T12:30:41.578Z,10.20
2022-10-22T12:33:43.712Z,9.35
2022-10-22T12:36:48.218Z,10.80
2022-10-22T12:39:51.471Z,11.07
2022-10-22T12:42:59.303Z,11.67
2022-10-22T12:46:01.351Z,14.40
2022-10-22T12:49:08.774Z,10.70
2022-10-22T12:52:30.957Z,15.35
2022-10-22T12:55:34.485Z,13.48
2022-10-22T12:58:43.054Z,13.37
2022-10-22T13:01:45.824Z,12.57
2022-10-22T13:05:06.345Z,12.95
2022-10-22T13:08:17.004Z,11.00
2022-10-22T13:11:21.402Z,10.20
2022-10-22T13:14:26.174Z,11.73
2022-10-22T13:17:41.089Z,12.32
2022-10-22T13:20:54.283Z,14.55
2022-10-22T13:24:02.280Z,12.15
2022-10-22T13:27:04.668Z,12.45
2022-10-22T13:30:19.343Z,14.10
2022-10-22T13:33:27.088Z,12.57
2022-10-22T13:36:29.520Z,20.20
2022-10-22T13:39:32.884Z,12.77
2022-10-22T13:42:36.154Z,12.35
2022-10-22T13:45:38.220Z,11.70
2022-10-22T13:48:40.923Z,15.32
2022-10-22T13:51:43.819Z,11.52
2022-10-22T13:54:46.036Z,15.82
2022-10-22T13:57:48.627Z,15.00
2022-10-22T14:00:55.911Z,16.87
2022-10-22T14:04:02.190Z,18.60
2022-10-22T14:07:04.596Z,18.02
2022-10-22T14:10:24.352Z,18.10
2022-10-22T14:13:26.778Z,20.08
2022-10-22T14:16:32.851Z,19.87
2022-10-22T14:19:35.128Z,21.92
2022-10-22T14:22:37.111Z,22.27
2022-10-22T14:25:39.157Z,23.50
2022-10-22T14:29:04.354Z,25.10
2022-10-22T14:32:03.465Z,26.00
2022-10-22T14:35:06.249Z,25.27
2022-10-22T14:38:09.816Z,27.08
2022-10-22T14:41:24.017Z,25.80
2022-10-22T14:44:26.184Z,26.85
2022-10-22T14:47:28.322Z,25.97
2022-10-22T14:50:30.355Z,22.15
2022-10-22T14:53:32.325Z,25.00
2022-10-22T14:56:34.582Z,23.23
2022-10-22T14:59:36.886Z,24.87
2022-10-22T15:02:39.179Z,30.03
2022-10-22T15:05:44.821Z,25.73
2022-10-22T15:08:47.648Z,25.08
2022-10-22T15:11:50.523Z,23.95
2022-10-22T15:14:52.748Z,27.25
2022-10-22T15:17:55.185Z,26.37
2022-10-22T15:21:00.462Z,28.73
2022-10-22T15:24:03.076Z,24.37
2022-10-22T15:27:05.519Z,29.10
2022-10-22T15:30:08.852Z,28.52
2022-10-22T15:33:11.551Z,29.47
2022-10-22T15:36:16.595Z,27.77
2022-10-22T15:39:19.185Z,28.42
2022-10-22T15:42:23.554Z,28.55
2022-10-22T15:45:26.152Z,34.10
2022-10-22T15:48:28.662Z,33.57
2022-10-22T15:51:31.549Z,35.25
2022-10-22T15:54:34.643Z,31.83
2022-10-22T15:57:38.387Z,32.72
2022-10-22T16:00:41.123Z,33.65
2022-10-22T16:03:43.897Z,32.83
2022-10-22T16:06:54.585Z,32.63
2022-10-22T16:09:58.415Z,36.00
2022-10-22T16:13:00.869Z,32.00
2022-10-22T16:16:08.167Z,31.92
2022-10-22T16:19:17.087Z,33.30
2022-10-22T16:22:19.874Z,34.70
2022-10-22T16:25:25.142Z,32.03
2022-10-22T16:28:28.416Z,36.92
2022-10-22T16:31:31.448Z,35.90
2022-10-22T16:34:34.497Z,37.47
2022-10-22T16:37:36.953Z,40.78
2022-10-22T16:40:42.759Z,36.78
2022-10-22T16:43:48.872Z,34.83
2022-10-22T16:46:53.204Z,32.45
2022-10-22T16:49:55.760Z,37.40
2022-10-22T16:52:58.691Z,38.42
2022-10-22T16:56:02.159Z,32.25
2022-10-22T16:59:06.821Z,33.25
2022-10-22T17:02:12.944Z,35.58
2022-10-22T17:05:16.268Z,36.00
2022-10-22T17:08:20.336Z,36.10
2022-10-22T17:11:24.673Z,34.00
2022-10-22T17:14:28.783Z,32.35
2022-10-22T17:17:32.936Z,41.20
2022-10-22T17:20:36.366Z,40.93
2022-10-22T17:23:40.066Z,41.65
2022-10-22T17:26:45.285Z,39.85
2022-10-22T17:29:48.374Z,42.88
2022-10-22T17:32:51.544Z,42.08
2022-10-22T17:35:58.827Z,41.30
2022-10-22T17:39:03.984Z,37.80
2022-10-22T17:42:06.785Z,38.55
2022-10-22T17:45:10.098Z,38.67
2022-10-22T17:48:13.138Z,40.80
2022-10-22T17:51:18.211Z,40.53
2022-10-22T17:54:22.911Z,39.55
2022-10-22T17:57:27.887Z,42.45
2022-10-22T18:00:33.028Z,40.53
2022-10-22T18:03:36.450Z,39.80
2022-10-22T18:06:39.576Z,39.87
2022-10-22T18:09:43.042Z,42.90
2022-10-22T18:12:47.149Z,49.65
2022-10-22T18:15:56.923Z,48.72
2022-10-22T18:19:01.224Z,45.95
2022-10-22T18:22:06.878Z,43.83
2022-10-22T18:25:10.497Z,44.30
2022-10-22T18:28:14.520Z,47.13
2022-10-22T18:31:20.878Z,48.87
2022-10-22T18:34:25.214Z,51.23
2022-10-22T18:37:31.238Z,51.20
2022-10-22T18:40:45.703Z,47.53
2022-10-22T18:43:57.703Z,46.92
2022-10-22T18:47:04.684Z,43.53
2022-10-22T18:50:14.447Z,47.03
2022-10-22T18:53:22.553Z,43.93
2022-10-22T18:56:26.876Z,47.72
2022-10-22T18:59:31.630Z,48.10
2022-10-22T19:02:34.556Z,45.95
2022-10-22T19:05:54.313Z,50.37
2022-10-22T19:09:01.514Z,52.17
2022-10-22T19:12:05.248Z,54.85
2022-10-22T19:15:09.273Z,50.78
2022-10-22T19:18:13.501Z,52.05
2022-10-22T19:21:35.850Z,59.77
2022-10-22T19:24:39.217Z,83.30
2022-10-22T19:27:45.813Z,131.15
2022-10-22T19:30:50.492Z,122.28
2022-10-22T19:33:55.453Z,110.72
2022-10-22T19:36:58.871Z,119.00
2022-10-22T19:40:02.259Z,104.93
2022-10-22T19:43:05.803Z,88.78
2022-10-22T19:46:10.559Z,79.70
2022-10-22T19:49:15.444Z,78.87
2022-10-22T19:52:20.183Z,94.00
2022-10-22T19:55:23.643Z,84.17
2022-10-22T19:58:27.740Z,77.12
2022-10-22T20:01:33.758Z,59.55
2022-10-22T20:04:36.927Z,60.40
2022-10-22T20:07:39.626Z,61.70
2022-10-22T20:10:43.291Z,46.67
2022-10-22T20:13:49.611Z,40.17
2022-10-22T20:16:55.273Z,42.90
2022-10-22T20:19:59.589Z,39.60
2022-10-22T20:23:02.158Z,40.92
2022-10-22T20:26:05.970Z,38.83
2022-10-22T20:29:08.563Z,45.83
2022-10-22T20:32:12.695Z,48.15
2022-10-22T20:35:16.691Z,45.40
2022-10-22T20:38:19.638Z,39.63
2022-10-22T20:41:23.421Z,50.50
2022-10-22T20:44:26.361Z,51.58
2022-10-22T20:47:39.304Z,41.95
2022-10-22T20:50:54.296Z,44.88
2022-10-22T20:53:57.310Z,42.45
2022-10-22T20:56:59.883Z,48.40
2022-10-22T21:00:02.048Z,46.17
2022-10-22T21:03:04.075Z,46.30
2022-10-22T21:06:06.650Z,50.72
2022-10-22T21:09:14.147Z,44.35
2022-10-22T21:12:16.267Z,91.53
2022-10-22T21:15:18.302Z,105.87
2022-10-22T21:18:20.471Z,107.68
2022-10-22T21:21:22.484Z,93.72
2022-10-22T21:24:26.387Z,83.80
2022-10-22T21:27:28.473Z,94.93
2022-10-22T21:30:30.528Z,66.97
2022-10-22T21:33:38.132Z,100.28
2022-10-22T21:36:41.232Z,78.05
2022-10-22T21:39:44.549Z,68.35
2022-10-22T21:42:46.869Z,70.93
2022-10-22T21:45:48.914Z,59.00
2022-10-22T21:48:59.356Z,59.72
2022-10-22T21:52:02.858Z,49.40
2022-10-22T21:55:05.330Z,91.72
2022-10-22T21:58:08.448Z,80.27
2022-10-22T22:01:12.151Z,85.12
2022-10-22T22:04:14.129Z,73.15
2022-10-22T22:07:16.184Z,87.40
2022-10-22T22:10:18.291Z,89.25
2022-10-22T22:13:25.004Z,63.07
2022-10-22T22:16:30.119Z,76.78
2022-10-22T22:19:32.124Z,137.93
2022-10-22T22:22:34.031Z,108.57
2022-10-22T22:25:36.040Z,140.70
2022-10-22T22:28:38.254Z,98.20
2022-10-22T22:31:40.430Z,90.20
2022-10-22T22:34:42.423Z,90.55
2022-10-22T22:37:44.599Z,62.30
2022-10-22T22:40:46.575Z,61.47
2022-10-22T22:43:48.678Z,33.40
2022-10-22T22:46:50.665Z,36.78
2022-10-22T22:49:52.613Z,31.20
2022-10-22T22:52:54.664Z,29.00
2022-10-22T22:56:18.509Z,33.77
2022-10-22T22:59:20.611Z,25.13
2022-10-22T23:02:41.278Z,27.65
2022-10-22T23:05:43.509Z,27.83
2022-10-22T23:08:49.398Z,26.20
2022-10-22T23:11:51.834Z,26.57
2022-10-22T23:14:53.780Z,27.60
2022-10-22T23:17:55.808Z,25.88
2022-10-22T23:20:57.766Z,28.90
2022-10-22T23:24:02.233Z,27.60
2022-10-22T23:27:04.406Z,25.52
2022-10-22T23:30:07.047Z,29.97
2022-10-22T23:33:11.900Z,28.05
2022-10-22T23:36:14.552Z,28.48
2022-10-22T23:39:19.524Z,29.92
2022-10-22T23:42:21.483Z,43.80
2022-10-22T23:45:23.527Z,73.00
2022-10-22T23:48:25.577Z,54.67
2022-10-22T23:51:27.967Z,32.05
2022-10-22T23:54:29.976Z,40.45
2022-10-22T23:57:31.924Z,46.50
